createdAt,value
2019-04-20T00:08:07.837Z,10.50
2019-04-20T00:18:09.903Z,10.00
2019-04-20T00:28:34.072Z,9.60
2019-04-20T00:38:25.921Z,9.40
2019-04-20T00:48:42.881Z,9.20
2019-04-20T00:58:52.205Z,8.80
2019-04-20T01:08:50.868Z,8.50
2019-04-20T01:18:57.748Z,8.20
2019-04-20T01:29:13.679Z,7.80
2019-04-20T01:39:22.036Z,7.60
2019-04-20T01:49:21.003Z,7.50
2019-04-20T01:59:39.994Z,7.30
2019-04-20T02:09:43.282Z,7.10
2019-04-20T02:20:06.599Z,6.60
2019-04-20T02:30:13.361Z,6.60
2019-04-20T02:40:42.981Z,6.40
2019-04-20T02:50:40.099Z,6.30
2019-04-20T03:00:38.429Z,6.20
2019-04-20T03:10:48.450Z,6.00
2019-04-20T03:20:54.910Z,5.60
2019-04-20T03:40:59.210Z,5.00
2019-04-20T03:51:17.031Z,5.00
2019-04-20T04:01:44.465Z,5.00
2019-04-20T04:11:31.452Z,4.90
2019-04-20T04:21:38.303Z,4.90
2019-04-20T04:31:59.450Z,5.10
2019-04-20T04:42:01.759Z,5.20
2019-04-20T04:51:50.162Z,5.10
2019-04-20T05:01:53.418Z,5.30
2019-04-20T05:12:10.309Z,5.60
2019-04-20T05:22:37.773Z,6.30
2019-04-20T05:32:35.763Z,6.40
2019-04-20T05:43:21.566Z,6.70
2019-04-20T05:53:38.535Z,7.20
2019-04-20T06:03:43.714Z,7.90
2019-04-20T06:13:50.686Z,8.20
2019-04-20T06:24:26.571Z,8.70
2019-04-20T06:34:33.312Z,9.30
2019-04-20T06:44:37.032Z,9.70
2019-04-20T06:55:04.482Z,10.20
2019-04-20T07:05:13.143Z,10.80
2019-04-20T07:15:17.744Z,11.40
2019-04-20T07:25:48.282Z,11.90
2019-04-20T07:35:50.540Z,12.40
2019-04-20T07:46:34.614Z,12.90
2019-04-20T07:56:34.609Z,13.40
2019-04-20T08:06:35.318Z,14.10
2019-04-20T08:17:09.159Z,14.60
2019-04-20T08:26:53.092Z,15.30
2019-04-20T08:37:22.227Z,15.80
2019-04-20T09:30:41.710Z,17.50
2019-04-20T09:40:51.489Z,18.10
2019-04-20T09:51:30.448Z,18.60
2019-04-20T10:01:29.412Z,18.60
2019-04-20T10:11:25.852Z,18.90
2019-04-20T10:21:31.865Z,19.00
2019-04-20T10:31:46.614Z,19.40
2019-04-20T10:41:51.156Z,19.70
2019-04-20T10:51:53.581Z,19.70
2019-04-20T11:01:59.634Z,19.90
2019-04-20T11:12:06.374Z,19.80
2019-04-20T11:22:14.530Z,20.20
2019-04-20T11:32:20.347Z,20.40
2019-04-20T11:42:25.993Z,20.10
2019-04-20T11:52:33.224Z,20.70
2019-04-20T12:02:47.803Z,21.00
2019-04-20T12:12:55.507Z,21.30
2019-04-20T12:23:00.276Z,21.70
2019-04-20T12:33:07.213Z,22.10
2019-04-20T12:43:13.191Z,22.50
2019-04-20T12:53:20.319Z,22.90
2019-04-20T13:03:26.099Z,23.10
2019-04-20T13:13:34.432Z,23.90
2019-04-20T13:23:40.638Z,23.30
2019-04-20T13:33:47.513Z,23.40
2019-04-20T13:43:56.119Z,23.10
2019-04-20T13:54:01.720Z,22.70
2019-04-20T14:04:10.396Z,23.20
2019-04-20T14:14:17.180Z,23.80
2019-04-20T14:24:22.847Z,23.90
2019-04-20T14:34:31.014Z,22.90
2019-04-20T14:44:41.630Z,22.40
2019-04-20T14:55:07.726Z,23.00
2019-04-20T15:05:17.033Z,24.10
2019-04-20T15:15:22.946Z,22.90
2019-04-20T15:25:29.618Z,21.80
2019-04-20T15:35:35.551Z,21.40
2019-04-20T15:45:41.265Z,21.70
2019-04-20T15:55:49.222Z,21.90
2019-04-20T16:06:01.040Z,22.20
2019-04-20T16:16:08.059Z,22.10
2019-04-20T16:26:15.493Z,21.90
2019-04-20T16:36:22.817Z,22.00
2019-04-20T16:46:29.942Z,21.40
2019-04-20T16:56:37.166Z,21.60
2019-04-20T17:07:00.869Z,20.80
2019-04-20T17:17:07.425Z,20.10
2019-04-20T17:27:14.989Z,18.90
2019-04-20T17:37:22.529Z,18.10
2019-04-20T17:47:47.257Z,17.50
2019-04-20T17:57:35.500Z,17.00
2019-04-20T18:08:06.241Z,16.50
2019-04-20T18:18:28.316Z,16.10
2019-04-20T18:28:31.639Z,15.70
2019-04-20T18:38:22.114Z,15.50
2019-04-20T18:48:49.671Z,15.20
2019-04-20T18:58:35.339Z,15.00
2019-04-20T19:08:53.765Z,14.80
2019-04-20T19:19:32.113Z,14.70
2019-04-20T19:29:56.437Z,14.50
2019-04-20T19:40:10.887Z,14.20
2019-04-20T19:50:35.581Z,13.90
2019-04-20T20:00:20.843Z,13.60
2019-04-20T20:10:29.876Z,13.30
2019-04-20T20:20:54.288Z,13.00
2019-04-20T20:31:05.083Z,12.80
2019-04-20T20:41:08.738Z,12.50
2019-04-20T20:51:31.450Z,12.20
2019-04-20T21:01:22.187Z,11.90
2019-04-20T21:11:26.197Z,11.70
2019-04-20T21:21:42.759Z,11.50
2019-04-20T21:31:36.643Z,11.20
2019-04-20T21:41:50.935Z,11.10
2019-04-20T21:51:58.425Z,10.90
2019-04-20T22:02:06.530Z,10.80
2019-04-20T22:12:05.852Z,10.70
2019-04-20T22:32:20.473Z,10.30
2019-04-20T22:42:26.097Z,10.20
2019-04-20T22:52:44.394Z,10.10
2019-04-20T23:02:39.034Z,9.80
2019-04-20T23:12:50.803Z,9.70
2019-04-20T23:22:53.055Z,9.40
2019-04-20T23:32:59.820Z,9.40
2019-04-20T23:43:25.106Z,9.30
2019-04-20T23:53:42.697Z,9.30
